Time;durP1;ratioP1;P1;durP2;ratioP2;P2;SDS_P1;SDS_P2;PMS_P1;PMS_P2;Temp;Humidity;BMP_temperature;BMP_pressure;BME280_temperature;BME280_humidity;BME280_pressure;Samples;Min_cycle;Max_cycle;Signal;HPM_P1;HPM_P2
2023/03/03 00:00:53;;;;;;;2.35;1.80;;;;;;;;;;4986527;28;20045;-79
2023/03/03 00:03:21;;;;;;;3.33;1.70;;;;;;;;;;4993552;28;20053;-80
2023/03/03 00:05:47;;;;;;;4.93;2.00;;;;;;;;;;4971049;28;20049;-79
2023/03/03 00:08:13;;;;;;;7.22;1.88;;;;;;;;;;4966058;28;20042;-80
2023/03/03 00:10:39;;;;;;;2.67;1.70;;;;;;;;;;4985164;28;20491;-79
2023/03/03 00:13:06;;;;;;;4.38;1.80;;;;;;;;;;4990941;28;20140;-80
2023/03/03 00:15:32;;;;;;;3.15;1.80;;;;;;;;;;4993636;28;20485;-82
2023/03/03 00:17:59;;;;;;;4.15;1.60;;;;;;;;;;5001965;28;20049;-80
2023/03/03 00:20:28;;;;;;;6.93;1.75;;;;;;;;;;4989745;28;20479;-80
2023/03/03 00:22:54;;;;;;;4.43;1.60;;;;;;;;;;4981003;28;20510;-79
2023/03/03 00:25:33;;;;;;;3.05;1.80;;;;;;;;;;4967986;28;20569;-80
2023/03/03 00:28:23;;;;;;;6.32;1.98;;;;;;;;;;4970447;28;20503;-79
2023/03/03 00:30:49;;;;;;;3.15;1.60;;;;;;;;;;4959122;28;20105;-80
2023/03/03 00:33:31;;;;;;;3.08;1.75;;;;;;;;;;4983584;28;20481;-80
2023/03/03 00:36:03;;;;;;;3.38;1.80;;;;;;;;;;4957811;28;20172;-80
2023/03/03 00:38:29;;;;;;;3.05;1.60;;;;;;;;;;4999417;28;20057;-79
2023/03/03 00:40:55;;;;;;;3.83;1.60;;;;;;;;;;4981102;28;20042;-79
2023/03/03 00:43:26;;;;;;;3.85;1.60;;;;;;;;;;4969305;28;20034;-79
2023/03/03 00:45:56;;;;;;;2.42;1.58;;;;;;;;;;4984282;28;20058;-79
2023/03/03 00:48:29;;;;;;;2.97;1.80;;;;;;;;;;4986453;28;20054;-79
2023/03/03 00:50:56;;;;;;;1.63;1.50;;;;;;;;;;4969763;28;20428;-79
2023/03/03 00:53:23;;;;;;;3.40;1.48;;;;;;;;;;4987712;28;20097;-80
2023/03/03 00:55:50;;;;;;;3.08;1.50;;;;;;;;;;4982064;28;20046;-80
2023/03/03 00:58:17;;;;;;;4.30;1.60;;;;;;;;;;4966051;28;20046;-80
2023/03/03 01:00:43;;;;;;;2.25;1.40;;;;;;;;;;4967200;28;20058;-79
2023/03/03 01:03:13;;;;;;;5.75;1.55;;;;;;;;;;4987467;28;20084;-80
2023/03/03 01:05:39;;;;;;;5.10;1.83;;;;;;;;;;4972618;28;20482;-79
2023/03/03 01:08:06;;;;;;;3.55;1.40;;;;;;;;;;4988657;28;20042;-80
2023/03/03 01:10:33;;;;;;;4.53;1.77;;;;;;;;;;4971603;28;20053;-79
2023/03/03 01:13:00;;;;;;;3.72;1.48;;;;;;;;;;4987574;28;20054;-79
2023/03/03 01:15:26;;;;;;;4.90;1.90;;;;;;;;;;4973506;28;20518;-79
2023/03/03 01:17:52;;;;;;;2.55;1.75;;;;;;;;;;4975060;28;20057;-80
2023/03/03 01:20:18;;;;;;;2.17;1.80;;;;;;;;;;4972151;28;20435;-79
2023/03/03 01:22:44;;;;;;;2.63;1.60;;;;;;;;;;4974105;28;20576;-80
2023/03/03 01:25:10;;;;;;;4.43;2.05;;;;;;;;;;4964689;28;20073;-79
2023/03/03 01:27:36;;;;;;;4.38;1.73;;;;;;;;;;4979196;28;20051;-80
2023/03/03 01:30:03;;;;;;;1.77;1.60;;;;;;;;;;4993702;28;20042;-80
2023/03/03 01:32:29;;;;;;;3.90;2.00;;;;;;;;;;4983713;28;20387;-80
2023/03/03 01:34:56;;;;;;;2.38;1.80;;;;;;;;;;4970280;28;20129;-79
2023/03/03 01:37:22;;;;;;;4.13;2.05;;;;;;;;;;4978661;28;20516;-79
2023/03/03 01:39:51;;;;;;;2.55;1.70;;;;;;;;;;4962523;28;20046;-80
2023/03/03 01:42:18;;;;;;;3.90;1.70;;;;;;;;;;4979658;28;20124;-80
2023/03/03 01:44:44;;;;;;;5.10;2.40;;;;;;;;;;4991182;28;20176;-79
2023/03/03 01:47:26;;;;;;;3.17;1.50;;;;;;;;;;4986347;28;20522;-79
2023/03/03 01:49:56;;;;;;;1.60;1.50;;;;;;;;;;4972375;28;20043;-80
2023/03/03 01:52:22;;;;;;;5.43;1.80;;;;;;;;;;4985860;28;20479;-79
2023/03/03 01:54:52;;;;;;;3.15;1.85;;;;;;;;;;4986101;28;20046;-79
2023/03/03 01:57:23;;;;;;;2.85;1.77;;;;;;;;;;4992839;28;20041;-79
2023/03/03 01:59:50;;;;;;;1.65;1.50;;;;;;;;;;4972267;28;20050;-80
2023/03/03 02:02:16;;;;;;;3.53;1.90;;;;;;;;;;4984102;28;20042;-80
2023/03/03 02:04:43;;;;;;;3.35;1.63;;;;;;;;;;4989958;28;20046;-80
2023/03/03 02:07:10;;;;;;;2.03;1.80;;;;;;;;;;4968353;28;20046;-80
2023/03/03 02:09:44;;;;;;;2.53;1.90;;;;;;;;;;4966298;28;20054;-80
2023/03/03 02:12:12;;;;;;;2.58;1.80;;;;;;;;;;4985996;28;20579;-80
2023/03/03 02:14:38;;;;;;;2.95;1.70;;;;;;;;;;4967817;28;20059;-79
2023/03/03 02:17:04;;;;;;;5.32;1.88;;;;;;;;;;4983611;28;20046;-80
2023/03/03 02:19:30;;;;;;;3.10;1.70;;;;;;;;;;4987766;28;20256;-79
2023/03/03 02:21:56;;;;;;;1.92;1.58;;;;;;;;;;4969718;28;20038;-79
2023/03/03 02:24:27;;;;;;;4.10;1.73;;;;;;;;;;4988677;28;20039;-80
2023/03/03 02:26:53;;;;;;;3.45;1.90;;;;;;;;;;4987173;28;20628;-79
2023/03/03 02:29:19;;;;;;;5.82;1.80;;;;;;;;;;4981250;28;20046;-79
2023/03/03 02:31:45;;;;;;;5.35;2.03;;;;;;;;;;4981477;28;20085;-80
2023/03/03 02:34:11;;;;;;;2.72;1.90;;;;;;;;;;4969939;28;20084;-79
2023/03/03 02:36:38;;;;;;;4.32;2.10;;;;;;;;;;4966224;28;20122;-79
2023/03/03 02:39:23;;;;;;;3.38;1.95;;;;;;;;;;4983666;28;20096;-79
2023/03/03 02:42:01;;;;;;;2.70;1.80;;;;;;;;;;4969953;28;20046;-79
2023/03/03 02:44:29;;;;;;;2.78;1.70;;;;;;;;;;4989544;28;20096;-79
2023/03/03 02:46:56;;;;;;;4.72;1.80;;;;;;;;;;4988910;28;20040;-79
2023/03/03 02:49:23;;;;;;;7.40;1.92;;;;;;;;;;4974233;28;20101;-79
2023/03/03 02:51:49;;;;;;;3.42;1.70;;;;;;;;;;4968241;28;20097;-79
2023/03/03 02:54:16;;;;;;;4.15;2.17;;;;;;;;;;4984385;28;20050;-79
2023/03/03 02:56:42;;;;;;;3.08;2.00;;;;;;;;;;4975252;28;20309;-80
2023/03/03 02:59:09;;;;;;;4.47;1.80;;;;;;;;;;4987522;28;20038;-80
2023/03/03 03:01:35;;;;;;;4.30;2.10;;;;;;;;;;4993519;28;20046;-79
2023/03/03 03:04:09;;;;;;;3.28;1.80;;;;;;;;;;5003923;28;20045;-79
2023/03/03 03:06:35;;;;;;;4.53;2.00;;;;;;;;;;5002686;28;20043;-79
2023/03/03 03:09:02;;;;;;;2.50;1.83;;;;;;;;;;4989951;28;20042;-79
2023/03/03 03:11:28;;;;;;;2.70;1.60;;;;;;;;;;4993595;28;20129;-79
2023/03/03 03:13:54;;;;;;;5.10;1.70;;;;;;;;;;4982739;28;20054;-79
2023/03/03 03:16:20;;;;;;;4.05;1.80;;;;;;;;;;4966599;28;20058;-79
2023/03/03 03:18:46;;;;;;;3.75;2.00;;;;;;;;;;4966773;28;20054;-79
2023/03/03 03:21:13;;;;;;;5.80;2.00;;;;;;;;;;4989399;28;20439;-79
2023/03/03 03:23:39;;;;;;;4.18;1.80;;;;;;;;;;4968094;28;20475;-79
2023/03/03 03:26:06;;;;;;;4.82;1.70;;;;;;;;;;4999324;28;20046;-80
2023/03/03 03:28:32;;;;;;;4.20;2.00;;;;;;;;;;4967786;28;20042;-79
2023/03/03 03:30:58;;;;;;;1.85;1.73;;;;;;;;;;4963813;28;20543;-80
2023/03/03 03:33:27;;;;;;;3.10;1.83;;;;;;;;;;4969406;28;20042;-80
2023/03/03 03:35:54;;;;;;;4.40;1.90;;;;;;;;;;4966936;28;20109;-79
2023/03/03 03:38:20;;;;;;;4.72;1.80;;;;;;;;;;4969074;28;20072;-80
2023/03/03 03:40:46;;;;;;;2.65;1.95;;;;;;;;;;5007069;28;20050;-79
2023/03/03 03:43:12;;;;;;;5.30;1.77;;;;;;;;;;4960726;28;20058;-79
2023/03/03 03:45:38;;;;;;;2.97;1.75;;;;;;;;;;4971157;28;20401;-79
2023/03/03 03:48:04;;;;;;;3.15;1.92;;;;;;;;;;4984235;28;20039;-80
2023/03/03 03:50:31;;;;;;;2.55;1.95;;;;;;;;;;4987852;28;20043;-79
2023/03/03 03:52:57;;;;;;;4.82;1.83;;;;;;;;;;4986244;28;20386;-80
2023/03/03 03:55:23;;;;;;;4.78;1.88;;;;;;;;;;4986441;28;20457;-80
2023/03/03 03:57:49;;;;;;;3.75;1.85;;;;;;;;;;4989565;28;20042;-80
2023/03/03 04:00:15;;;;;;;2.13;1.92;;;;;;;;;;4968487;28;20052;-79
2023/03/03 04:02:41;;;;;;;3.63;1.90;;;;;;;;;;4969415;28;20141;-79
2023/03/03 04:05:07;;;;;;;4.32;1.70;;;;;;;;;;4965775;28;20478;-79
2023/03/03 04:07:33;;;;;;;6.45;1.77;;;;;;;;;;5000437;28;20402;-79
2023/03/03 04:09:59;;;;;;;3.03;1.80;;;;;;;;;;4987100;28;20038;-80
2023/03/03 04:12:25;;;;;;;2.33;1.70;;;;;;;;;;4985774;28;21845;-79
2023/03/03 04:14:51;;;;;;;5.38;1.90;;;;;;;;;;4986992;28;20433;-79
2023/03/03 04:17:19;;;;;;;4.40;1.75;;;;;;;;;;4966873;28;20143;-80
2023/03/03 04:19:46;;;;;;;4.70;1.92;;;;;;;;;;4983858;28;20046;-80
2023/03/03 04:22:13;;;;;;;3.67;1.88;;;;;;;;;;4982044;28;20046;-80
2023/03/03 04:24:39;;;;;;;2.65;1.88;;;;;;;;;;4958590;28;20455;-79
2023/03/03 04:27:05;;;;;;;4.35;1.90;;;;;;;;;;4981452;28;20128;-79
2023/03/03 04:29:31;;;;;;;6.22;1.92;;;;;;;;;;4981663;28;20129;-80
2023/03/03 04:31:57;;;;;;;3.65;2.05;;;;;;;;;;4964373;28;20065;-78
2023/03/03 04:34:23;;;;;;;3.58;1.80;;;;;;;;;;4963988;28;20046;-79
2023/03/03 04:36:50;;;;;;;1.80;1.70;;;;;;;;;;4987525;28;20045;-79
2023/03/03 04:39:16;;;;;;;5.68;1.90;;;;;;;;;;4961702;28;20053;-79
2023/03/03 04:41:42;;;;;;;4.55;1.80;;;;;;;;;;4984667;28;20041;-79
2023/03/03 04:44:08;;;;;;;3.13;1.70;;;;;;;;;;4982156;28;20042;-79
2023/03/03 04:46:34;;;;;;;3.97;1.80;;;;;;;;;;4983045;28;20038;-79
2023/03/03 04:49:00;;;;;;;3.50;1.60;;;;;;;;;;4962723;28;20508;-79
2023/03/03 04:51:26;;;;;;;3.50;1.90;;;;;;;;;;4986797;28;20414;-79
2023/03/03 04:53:53;;;;;;;3.65;1.80;;;;;;;;;;4988596;28;20042;-79
2023/03/03 04:56:19;;;;;;;2.40;1.60;;;;;;;;;;4966287;28;20046;-79
2023/03/03 04:58:45;;;;;;;3.55;2.00;;;;;;;;;;4987594;28;20133;-79
2023/03/03 05:01:16;;;;;;;3.38;1.63;;;;;;;;;;4965408;28;20054;-79
2023/03/03 05:03:42;;;;;;;4.93;1.85;;;;;;;;;;4989426;28;20536;-80
2023/03/03 05:06:08;;;;;;;3.80;1.80;;;;;;;;;;4986709;28;20038;-80
2023/03/03 05:08:34;;;;;;;4.72;1.77;;;;;;;;;;4976091;28;20049;-79
2023/03/03 05:11:01;;;;;;;4.43;1.95;;;;;;;;;;4973895;28;20050;-80
2023/03/03 05:13:27;;;;;;;4.75;1.90;;;;;;;;;;4971826;28;20142;-80
2023/03/03 05:15:54;;;;;;;1.80;1.70;;;;;;;;;;4971407;28;20069;-79
2023/03/03 05:18:20;;;;;;;5.43;1.80;;;;;;;;;;4985315;28;20530;-79
2023/03/03 05:20:47;;;;;;;4.88;2.00;;;;;;;;;;4972094;28;20046;-79
2023/03/03 05:23:13;;;;;;;3.65;1.95;;;;;;;;;;4973167;28;20050;-79
2023/03/03 05:25:42;;;;;;;2.58;1.85;;;;;;;;;;4975219;28;20050;-80
2023/03/03 05:28:09;;;;;;;2.75;1.85;;;;;;;;;;4973899;28;20054;-79
2023/03/03 05:30:35;;;;;;;3.13;1.85;;;;;;;;;;4967632;28;20133;-79
2023/03/03 05:33:01;;;;;;;3.88;2.13;;;;;;;;;;4972239;28;20046;-79
2023/03/03 05:35:27;;;;;;;3.22;1.77;;;;;;;;;;4984460;28;20053;-79
2023/03/03 05:37:53;;;;;;;2.55;1.67;;;;;;;;;;4985246;28;20401;-80
2023/03/03 05:40:20;;;;;;;4.30;1.50;;;;;;;;;;4973609;28;20034;-80
2023/03/03 05:42:46;;;;;;;1.75;1.58;;;;;;;;;;4967349;28;20072;-79
2023/03/03 05:45:12;;;;;;;3.25;1.67;;;;;;;;;;4967691;28;20038;-79
2023/03/03 05:47:38;;;;;;;1.83;1.70;;;;;;;;;;4987546;28;20308;-80
2023/03/03 05:50:04;;;;;;;4.07;1.98;;;;;;;;;;4972576;28;20443;-80
2023/03/03 05:52:30;;;;;;;2.15;1.60;;;;;;;;;;4971434;28;20058;-79
2023/03/03 05:54:56;;;;;;;2.00;1.60;;;;;;;;;;4989197;28;20042;-79
2023/03/03 05:57:23;;;;;;;2.08;1.75;;;;;;;;;;4975582;28;20129;-80
2023/03/03 05:59:49;;;;;;;2.72;1.80;;;;;;;;;;4989143;28;20042;-79
2023/03/03 06:02:15;;;;;;;3.67;1.55;;;;;;;;;;4976035;28;20042;-80
2023/03/03 06:04:41;;;;;;;3.67;1.70;;;;;;;;;;4966425;28;20805;-80
2023/03/03 06:07:07;;;;;;;2.45;1.73;;;;;;;;;;5000085;28;20482;-80
2023/03/03 06:09:33;;;;;;;2.58;1.60;;;;;;;;;;4973542;28;20517;-80
2023/03/03 06:11:59;;;;;;;2.25;1.80;;;;;;;;;;4968747;28;20509;-79
2023/03/03 06:14:25;;;;;;;3.33;2.08;;;;;;;;;;4971837;28;20058;-80
2023/03/03 06:16:51;;;;;;;4.30;2.17;;;;;;;;;;4969728;28;20046;-79
2023/03/03 06:19:17;;;;;;;2.83;2.10;;;;;;;;;;4964718;28;20058;-80
2023/03/03 06:21:43;;;;;;;7.07;2.63;;;;;;;;;;4984443;28;20046;-80
2023/03/03 06:24:09;;;;;;;6.22;3.03;;;;;;;;;;4988990;28;20038;-80
2023/03/03 06:26:35;;;;;;;4.15;2.58;;;;;;;;;;4968653;28;20044;-79
2023/03/03 06:29:01;;;;;;;5.07;1.75;;;;;;;;;;4964443;28;20159;-80
2023/03/03 06:31:27;;;;;;;6.63;2.65;;;;;;;;;;4982368;28;20050;-80
2023/03/03 06:33:53;;;;;;;4.28;2.08;;;;;;;;;;4964607;28;20054;-79
2023/03/03 06:36:20;;;;;;;5.80;2.30;;;;;;;;;;4987137;28;20047;-79
2023/03/03 06:38:46;;;;;;;5.95;2.00;;;;;;;;;;4989912;28;20045;-80
2023/03/03 06:41:12;;;;;;;8.10;2.10;;;;;;;;;;4985292;28;20043;-80
2023/03/03 06:43:38;;;;;;;7.03;2.33;;;;;;;;;;4972292;28;20054;-79
2023/03/03 06:46:05;;;;;;;5.65;2.22;;;;;;;;;;4978125;28;20043;-79
2023/03/03 06:48:32;;;;;;;6.20;2.40;;;;;;;;;;4981622;28;20069;-80
2023/03/03 06:51:01;;;;;;;8.30;2.47;;;;;;;;;;4984873;28;20030;-80
2023/03/03 06:53:27;;;;;;;7.97;2.05;;;;;;;;;;4973012;28;20050;-80
2023/03/03 06:55:55;;;;;;;8.73;1.83;;;;;;;;;;4980200;28;20117;-80
2023/03/03 06:58:21;;;;;;;7.65;2.33;;;;;;;;;;5006889;28;20054;-80
2023/03/03 07:00:55;;;;;;;4.80;1.80;;;;;;;;;;4974441;28;20486;-80
2023/03/03 07:03:28;;;;;;;3.95;1.73;;;;;;;;;;4990584;28;20096;-80
2023/03/03 07:05:54;;;;;;;4.15;2.00;;;;;;;;;;4991019;28;20053;-80
2023/03/03 07:08:22;;;;;;;4.50;1.95;;;;;;;;;;4964846;28;20178;-80
2023/03/03 07:10:49;;;;;;;3.65;1.95;;;;;;;;;;4971204;28;20046;-79
2023/03/03 07:13:22;;;;;;;4.07;2.00;;;;;;;;;;4967785;28;20058;-80
2023/03/03 07:15:50;;;;;;;4.28;2.03;;;;;;;;;;4968493;28;20042;-79
2023/03/03 07:18:31;;;;;;;3.58;1.90;;;;;;;;;;4965455;28;20093;-80
2023/03/03 07:20:58;;;;;;;5.90;1.77;;;;;;;;;;4989313;28;20045;-79
2023/03/03 07:23:25;;;;;;;3.78;2.00;;;;;;;;;;4970577;28;21012;-80
2023/03/03 07:25:52;;;;;;;4.55;1.80;;;;;;;;;;4975060;28;20050;-80
2023/03/03 07:28:25;;;;;;;6.72;2.53;;;;;;;;;;4961013;28;20502;-80
2023/03/03 07:30:56;;;;;;;5.80;2.47;;;;;;;;;;4965505;28;20050;-80
2023/03/03 07:33:28;;;;;;;5.50;2.08;;;;;;;;;;4969294;28;20046;-79
2023/03/03 07:35:58;;;;;;;4.25;2.45;;;;;;;;;;4972307;28;20434;-79
2023/03/03 07:38:34;;;;;;;6.85;2.20;;;;;;;;;;4990657;28;20069;-80
2023/03/03 07:41:04;;;;;;;3.75;2.00;;;;;;;;;;4984026;28;20065;-80
2023/03/03 07:43:35;;;;;;;6.50;2.30;;;;;;;;;;4968461;28;20042;-79
2023/03/03 07:46:02;;;;;;;2.90;2.03;;;;;;;;;;4995655;28;20185;-79
2023/03/03 07:48:36;;;;;;;4.25;2.10;;;;;;;;;;4964584;28;20057;-78
2023/03/03 07:51:12;;;;;;;3.97;2.30;;;;;;;;;;4975116;28;20042;-79
2023/03/03 07:53:38;;;;;;;4.55;1.92;;;;;;;;;;4965069;28;20074;-80
2023/03/03 07:56:25;;;;;;;4.35;1.85;;;;;;;;;;4987051;28;20034;-78
2023/03/03 07:58:51;;;;;;;6.90;2.00;;;;;;;;;;4979701;28;20060;-80
2023/03/03 08:01:38;;;;;;;4.47;2.10;;;;;;;;;;4997110;28;20881;-79
2023/03/03 08:04:09;;;;;;;2.85;1.80;;;;;;;;;;4989263;28;20050;-79
2023/03/03 08:06:35;;;;;;;2.22;1.60;;;;;;;;;;4995239;28;20084;-80
2023/03/03 08:09:24;;;;;;;3.97;2.05;;;;;;;;;;4977611;28;20038;-79
2023/03/03 08:11:53;;;;;;;3.33;1.63;;;;;;;;;;4986851;28;20050;-79
2023/03/03 08:14:24;;;;;;;7.90;2.10;;;;;;;;;;5007008;28;20054;-81
2023/03/03 08:16:50;;;;;;;3.72;1.95;;;;;;;;;;4972746;28;20473;-79
2023/03/03 08:19:17;;;;;;;6.10;2.22;;;;;;;;;;4998473;28;20489;-80
2023/03/03 08:21:44;;;;;;;4.72;2.08;;;;;;;;;;4982500;28;20046;-79
2023/03/03 08:24:10;;;;;;;4.40;2.10;;;;;;;;;;4972680;28;20051;-79
2023/03/03 08:26:36;;;;;;;7.28;2.00;;;;;;;;;;4974713;28;20038;-79
2023/03/03 08:29:02;;;;;;;3.60;1.70;;;;;;;;;;4995331;28;20042;-78
2023/03/03 08:31:28;;;;;;;6.10;1.90;;;;;;;;;;5005324;28;20050;-79
2023/03/03 08:33:54;;;;;;;1.80;1.60;;;;;;;;;;4959834;28;20046;-80
2023/03/03 08:36:20;;;;;;;4.07;1.70;;;;;;;;;;4990702;28;20525;-79
2023/03/03 08:38:46;;;;;;;3.42;2.10;;;;;;;;;;4993729;28;20050;-79
2023/03/03 08:41:12;;;;;;;3.45;1.80;;;;;;;;;;4992100;28;20046;-79
2023/03/03 08:43:38;;;;;;;2.72;1.60;;;;;;;;;;4971700;28;20046;-79
2023/03/03 08:46:05;;;;;;;2.15;1.80;;;;;;;;;;4969601;28;20948;-78
2023/03/03 08:48:31;;;;;;;4.63;1.70;;;;;;;;;;4973036;28;20049;-79
2023/03/03 08:50:58;;;;;;;2.17;1.70;;;;;;;;;;5000003;28;20382;-79
2023/03/03 08:53:24;;;;;;;4.35;2.13;;;;;;;;;;4977320;28;20045;-78
2023/03/03 08:55:51;;;;;;;4.82;1.95;;;;;;;;;;4973130;28;20050;-79
2023/03/03 08:58:17;;;;;;;4.63;1.98;;;;;;;;;;4982469;28;20058;-79
2023/03/03 09:00:43;;;;;;;4.40;1.73;;;;;;;;;;4983132;28;20482;-79
2023/03/03 09:03:09;;;;;;;3.70;2.15;;;;;;;;;;4990153;28;20049;-79
2023/03/03 09:05:37;;;;;;;3.10;2.03;;;;;;;;;;4976242;28;20050;-79
2023/03/03 09:08:03;;;;;;;5.55;2.10;;;;;;;;;;5012207;28;20501;-80
2023/03/03 09:10:30;;;;;;;6.28;3.20;;;;;;;;;;4988815;28;20076;-79
2023/03/03 09:13:02;;;;;;;7.55;2.63;;;;;;;;;;4986185;28;20059;-79
2023/03/03 09:15:29;;;;;;;4.80;2.08;;;;;;;;;;4970645;28;20054;-80
2023/03/03 09:18:15;;;;;;;4.40;1.70;;;;;;;;;;4986736;28;20085;-79
2023/03/03 09:20:42;;;;;;;3.30;1.60;;;;;;;;;;4968156;28;20397;-79
2023/03/03 09:23:29;;;;;;;3.60;1.60;;;;;;;;;;5001262;28;20097;-81
2023/03/03 09:25:55;;;;;;;3.80;2.22;;;;;;;;;;4973140;28;20043;-81
2023/03/03 09:28:25;;;;;;;4.60;1.63;;;;;;;;;;4967096;28;20053;-79
2023/03/03 09:30:52;;;;;;;4.07;1.70;;;;;;;;;;4974598;28;20395;-80
2023/03/03 09:33:29;;;;;;;4.63;1.95;;;;;;;;;;4975138;28;20486;-80
2023/03/03 09:35:58;;;;;;;2.97;1.63;;;;;;;;;;4991650;28;20426;-79
2023/03/03 09:38:31;;;;;;;4.25;1.63;;;;;;;;;;4975010;28;20045;-79
2023/03/03 09:41:03;;;;;;;5.90;2.17;;;;;;;;;;4968328;28;20050;-79
2023/03/03 09:43:37;;;;;;;9.68;2.40;;;;;;;;;;4966091;28;20058;-79
2023/03/03 09:46:03;;;;;;;1.77;1.65;;;;;;;;;;4968189;28;20050;-79
2023/03/03 09:48:34;;;;;;;4.18;1.73;;;;;;;;;;4968669;28;20061;-83
2023/03/03 09:51:15;;;;;;;4.57;2.03;;;;;;;;;;4985565;28;20038;-81
2023/03/03 09:53:55;;;;;;;3.65;1.83;;;;;;;;;;4967182;28;20042;-81
2023/03/03 09:56:25;;;;;;;3.22;1.40;;;;;;;;;;4987491;28;20121;-81
2023/03/03 09:59:06;;;;;;;2.88;1.40;;;;;;;;;;4996083;28;20171;-81
2023/03/03 10:01:51;;;;;;;2.88;1.95;;;;;;;;;;4981656;28;20050;-81
2023/03/03 10:04:25;;;;;;;4.80;1.60;;;;;;;;;;5003175;28;20846;-81
2023/03/03 10:07:06;;;;;;;2.25;1.50;;;;;;;;;;4977787;28;20050;-81
2023/03/03 10:09:50;;;;;;;4.63;1.90;;;;;;;;;;4961432;28;20082;-80
2023/03/03 10:12:21;;;;;;;3.63;2.13;;;;;;;;;;4970376;28;20054;-81
2023/03/03 10:14:56;;;;;;;8.77;2.35;;;;;;;;;;4962210;28;20034;-80
2023/03/03 10:17:34;;;;;;;4.57;1.60;;;;;;;;;;4971383;28;20375;-81
2023/03/03 10:20:00;;;;;;;5.65;2.00;;;;;;;;;;4971848;28;20508;-81
2023/03/03 10:22:31;;;;;;;3.17;1.98;;;;;;;;;;4972269;28;20046;-81
2023/03/03 10:24:57;;;;;;;2.55;1.50;;;;;;;;;;4985123;28;20131;-82
2023/03/03 10:27:30;;;;;;;2.38;1.50;;;;;;;;;;5003190;28;20077;-80
2023/03/03 10:29:58;;;;;;;;;;;;;;;;;;4985441;28;20042;-81
2023/03/03 10:32:30;;;;;;;3.83;1.80;;;;;;;;;;4961963;28;19938;-81
2023/03/03 10:35:15;;;;;;;1.98;1.23;;;;;;;;;;4987953;28;20053;-80
2023/03/03 10:37:49;;;;;;;3.30;1.60;;;;;;;;;;4967186;28;20061;-81
2023/03/03 10:40:42;;;;;;;3.42;1.60;;;;;;;;;;4972702;28;20053;-81
2023/03/03 10:43:08;;;;;;;2.53;1.65;;;;;;;;;;4965078;28;20056;-81
2023/03/03 10:45:34;;;;;;;5.60;2.10;;;;;;;;;;4962589;28;20054;-80
2023/03/03 10:48:12;;;;;;;4.13;1.50;;;;;;;;;;4982461;28;20046;-80
2023/03/03 10:50:50;;;;;;;2.92;1.58;;;;;;;;;;4983361;28;20047;-81
2023/03/03 10:53:22;;;;;;;3.33;1.50;;;;;;;;;;4970921;28;20058;-81
2023/03/03 10:55:51;;;;;;;3.08;2.10;;;;;;;;;;4965916;28;20093;-80
2023/03/03 10:58:32;;;;;;;3.22;1.67;;;;;;;;;;4986014;28;20050;-81
2023/03/03 11:01:03;;;;;;;2.45;1.67;;;;;;;;;;4979795;28;20512;-81
2023/03/03 11:03:39;;;;;;;4.03;1.52;;;;;;;;;;4987033;28;20120;-81
2023/03/03 11:06:13;;;;;;;2.50;1.70;;;;;;;;;;4986958;28;20117;-81
2023/03/03 11:09:17;;;;;;;5.78;1.80;;;;;;;;;;4966349;28;20832;-81
2023/03/03 11:11:54;;;;;;;1.48;1.33;;;;;;;;;;4896700;29;20445;-81
2023/03/03 11:14:26;;;;;;;3.70;1.55;;;;;;;;;;4894598;29;20139;-81
2023/03/03 11:16:59;;;;;;;4.05;2.15;;;;;;;;;;4933501;28;20509;-80
2023/03/03 11:19:25;;;;;;;2.72;1.52;;;;;;;;;;5001894;28;20054;-81
2023/03/03 11:22:10;;;;;;;5.07;1.65;;;;;;;;;;4972920;28;20073;-81
2023/03/03 11:24:49;;;;;;;3.08;1.42;;;;;;;;;;4967045;28;20126;-80
2023/03/03 11:27:33;;;;;;;3.17;1.75;;;;;;;;;;4986513;28;20054;-81
2023/03/03 11:30:08;;;;;;;2.58;1.50;;;;;;;;;;4984982;28;20051;-81
2023/03/03 11:32:40;;;;;;;3.55;1.60;;;;;;;;;;4985842;28;20044;-81
2023/03/03 11:35:17;;;;;;;3.38;1.90;;;;;;;;;;4964295;28;20046;-81
2023/03/03 11:37:52;;;;;;;5.35;1.90;;;;;;;;;;4982812;28;20490;-81
2023/03/03 11:40:25;;;;;;;4.07;1.70;;;;;;;;;;4968658;28;20494;-81
2023/03/03 11:42:51;;;;;;;4.40;2.00;;;;;;;;;;4988538;28;20046;-80
2023/03/03 11:45:18;;;;;;;6.82;1.90;;;;;;;;;;4966674;28;20472;-80
2023/03/03 11:47:47;;;;;;;6.43;2.15;;;;;;;;;;4984980;28;20043;-80
2023/03/03 11:50:25;;;;;;;6.60;2.00;;;;;;;;;;4969945;28;20499;-81
2023/03/03 11:52:52;;;;;;;4.88;2.08;;;;;;;;;;4965893;28;20043;-81
2023/03/03 11:55:32;;;;;;;5.75;2.13;;;;;;;;;;4970439;28;20077;-81
2023/03/03 11:58:19;;;;;;;6.85;2.28;;;;;;;;;;4965600;28;20045;-81
2023/03/03 12:00:45;;;;;;;8.65;2.80;;;;;;;;;;4986681;28;20486;-81
2023/03/03 12:03:24;;;;;;;7.03;2.63;;;;;;;;;;4967865;28;20177;-81
2023/03/03 12:06:02;;;;;;;8.27;2.45;;;;;;;;;;4967428;28;20043;-81
2023/03/03 12:08:28;;;;;;;8.32;2.60;;;;;;;;;;4984521;28;20101;-81
2023/03/03 12:10:57;;;;;;;10.35;2.55;;;;;;;;;;4963919;28;20080;-81
2023/03/03 12:13:43;;;;;;;7.97;2.00;;;;;;;;;;4957163;28;20054;-81
2023/03/03 12:16:18;;;;;;;7.88;2.92;;;;;;;;;;4972965;28;20478;-81
2023/03/03 12:18:47;;;;;;;9.65;2.90;;;;;;;;;;4974587;28;20478;-80
2023/03/03 12:21:18;;;;;;;9.07;2.60;;;;;;;;;;4972885;28;20046;-80
2023/03/03 12:23:54;;;;;;;7.35;2.13;;;;;;;;;;4989519;28;20058;-81
2023/03/03 12:26:58;;;;;;;8.18;2.50;;;;;;;;;;4958871;28;20046;-80
2023/03/03 12:29:37;;;;;;;8.40;3.10;;;;;;;;;;4918037;29;20063;-81
2023/03/03 12:32:05;;;;;;;12.60;2.85;;;;;;;;;;4901776;29;20164;-81
2023/03/03 12:34:31;;;;;;;6.72;2.58;;;;;;;;;;4949891;28;20054;-81
2023/03/03 12:37:12;;;;;;;8.65;2.72;;;;;;;;;;4965983;28;20092;-81
2023/03/03 12:39:52;;;;;;;14.05;3.47;;;;;;;;;;4965886;28;20062;-81
2023/03/03 12:42:18;;;;;;;12.00;3.83;;;;;;;;;;4977974;28;20039;-81
2023/03/03 12:44:47;;;;;;;18.70;3.90;;;;;;;;;;4988012;28;20073;-80
2023/03/03 12:47:32;;;;;;;13.88;3.22;;;;;;;;;;4981822;28;20097;-80
2023/03/03 12:50:01;;;;;;;17.25;3.20;;;;;;;;;;4984734;28;20046;-81
2023/03/03 12:52:30;;;;;;;14.80;3.20;;;;;;;;;;4965307;28;20494;-80
2023/03/03 12:54:56;;;;;;;12.00;3.42;;;;;;;;;;4966756;28;20046;-81
2023/03/03 12:57:40;;;;;;;9.88;3.28;;;;;;;;;;4970225;28;20046;-81
2023/03/03 13:00:06;;;;;;;;;;;;;;;;;;4982011;28;20085;-81
2023/03/03 13:02:42;;;;;;;12.27;3.42;;;;;;;;;;4983784;28;19969;-81
2023/03/03 13:05:24;;;;;;;15.57;3.70;;;;;;;;;;4982034;28;20043;-81
2023/03/03 13:08:09;;;;;;;15.73;3.83;;;;;;;;;;4973509;28;20510;-81
2023/03/03 13:10:44;;;;;;;11.23;3.28;;;;;;;;;;5000672;28;20058;-81
2023/03/03 13:13:13;;;;;;;12.73;3.42;;;;;;;;;;4967538;28;20101;-81
2023/03/03 13:15:45;;;;;;;12.43;2.72;;;;;;;;;;4958256;28;20149;-81
2023/03/03 13:18:20;;;;;;;15.63;3.67;;;;;;;;;;4967110;28;20051;-81
2023/03/03 13:20:46;;;;;;;15.13;3.70;;;;;;;;;;4964027;28;20502;-80
2023/03/03 13:23:15;;;;;;;13.65;4.00;;;;;;;;;;4972180;28;20039;-80
2023/03/03 13:25:55;;;;;;;13.32;4.20;;;;;;;;;;4966324;28;20039;-81
2023/03/03 13:28:25;;;;;;;13.77;3.80;;;;;;;;;;4985168;28;20125;-82
2023/03/03 13:30:55;;;;;;;13.40;3.70;;;;;;;;;;4971724;28;20058;-81
2023/03/03 13:33:33;;;;;;;14.38;3.47;;;;;;;;;;4972774;28;20137;-81
2023/03/03 13:36:01;;;;;;;12.85;3.47;;;;;;;;;;4983314;28;25379;-81
2023/03/03 13:38:36;;;;;;;9.93;3.40;;;;;;;;;;4970315;28;20082;-81
2023/03/03 13:41:05;;;;;;;14.52;5.10;;;;;;;;;;4974375;28;20045;-81
2023/03/03 13:44:03;;;;;;;15.10;4.15;;;;;;;;;;4965145;28;20518;-81
2023/03/03 13:46:40;;;;;;;15.45;3.85;;;;;;;;;;4956489;28;20113;-80
2023/03/03 13:49:25;;;;;;;13.32;3.67;;;;;;;;;;4968614;28;20038;-81
2023/03/03 13:51:54;;;;;;;11.82;3.55;;;;;;;;;;4967981;28;20391;-80
2023/03/03 13:54:38;;;;;;;18.83;4.57;;;;;;;;;;4992851;28;20438;-80
2023/03/03 13:57:10;;;;;;;11.27;3.67;;;;;;;;;;4968267;28;20085;-80
2023/03/03 13:59:43;;;;;;;12.98;3.17;;;;;;;;;;4966621;28;20062;-80
2023/03/03 14:02:28;;;;;;;19.35;4.70;;;;;;;;;;4969505;28;20046;-80
2023/03/03 14:05:02;;;;;;;12.75;3.67;;;;;;;;;;4966627;28;20089;-80
2023/03/03 14:07:28;;;;;;;;;;;;;;;;;;4962966;28;20059;-80
2023/03/03 14:10:01;;;;;;;15.00;4.03;;;;;;;;;;4965633;28;20006;-80
2023/03/03 14:12:38;;;;;;;12.35;3.35;;;;;;;;;;4968028;28;20495;-80
2023/03/03 14:15:16;;;;;;;14.23;3.80;;;;;;;;;;4968334;28;20076;-80
2023/03/03 14:17:54;;;;;;;12.60;4.05;;;;;;;;;;4966370;28;20058;-80
2023/03/03 14:20:26;;;;;;;17.80;4.80;;;;;;;;;;4963428;28;20105;-81
2023/03/03 14:22:57;;;;;;;13.60;4.10;;;;;;;;;;4957164;28;20072;-81
2023/03/03 14:25:24;;;;;;;12.75;3.80;;;;;;;;;;4964684;28;20046;-81
2023/03/03 14:27:49;;;;;;;16.17;3.65;;;;;;;;;;4967379;28;20046;-81
2023/03/03 14:30:22;;;;;;;14.43;3.65;;;;;;;;;;4970272;28;20463;-81
2023/03/03 14:32:59;;;;;;;12.20;3.43;;;;;;;;;;4964881;28;20053;-81
2023/03/03 14:35:29;;;;;;;13.75;4.13;;;;;;;;;;4999343;28;20317;-81
2023/03/03 14:38:00;;;;;;;12.48;4.00;;;;;;;;;;4966488;28;20529;-81
2023/03/03 14:40:31;;;;;;;15.02;4.30;;;;;;;;;;4967347;28;20042;-81
2023/03/03 14:42:59;;;;;;;13.88;3.78;;;;;;;;;;4976832;28;20054;-81
2023/03/03 14:45:38;;;;;;;17.10;4.47;;;;;;;;;;4973266;28;20085;-81
2023/03/03 14:48:24;;;;;;;16.70;3.92;;;;;;;;;;4970124;28;20447;-81
2023/03/03 14:50:53;;;;;;;14.13;3.72;;;;;;;;;;4967614;28;20403;-81
2023/03/03 14:53:21;;;;;;;13.00;3.47;;;;;;;;;;4966264;28;20050;-81
2023/03/03 14:55:49;;;;;;;12.05;3.20;;;;;;;;;;4991806;28;20051;-81
2023/03/03 14:58:29;;;;;;;20.27;3.90;;;;;;;;;;4996359;28;20050;-81
2023/03/03 15:01:14;;;;;;;15.85;3.90;;;;;;;;;;4961483;28;20051;-80